Time;durP1;ratioP1;P1;durP2;ratioP2;P2;SDS_P1;SDS_P2;PMS_P1;PMS_P2;Temp;Humidity;BMP_temperature;BMP_pressure;BME280_temperature;BME280_humidity;BME280_pressure;Samples;Min_cycle;Max_cycle;Signal;HPM_P1;HPM_P2
2022/04/05 08:30:57;;;;;;;7.65;4.03;;;11.50;99.00;;;;;;5079769;27;20395;-52
2022/04/05 08:33:24;;;;;;;9.10;4.30;;;11.60;99.30;;;;;;5073371;28;20561;-53
2022/04/05 08:35:51;;;;;;;11.10;4.55;;;11.70;99.20;;;;;;5073600;28;20037;-47
2022/04/05 08:38:18;;;;;;;7.13;3.83;;;11.80;99.10;;;;;;5069521;28;20123;-53
2022/04/05 08:40:45;;;;;;;7.55;3.30;;;11.90;98.60;;;;;;5070629;28;20036;-52
2022/04/05 08:43:12;;;;;;;6.50;3.40;;;12.00;98.00;;;;;;5069587;28;20045;-62
2022/04/05 08:45:43;;;;;;;4.68;2.92;;;12.00;97.90;;;;;;5069740;28;20044;-52
2022/04/05 08:48:10;;;;;;;8.80;3.10;;;12.10;97.70;;;;;;5069664;28;20055;-54
2022/04/05 08:50:37;;;;;;;5.95;3.10;;;12.10;97.30;;;;;;5067954;28;20037;-50
2022/04/05 08:53:04;;;;;;;6.68;2.88;;;12.10;97.40;;;;;;5068144;28;20095;-52
2022/04/05 08:55:35;;;;;;;4.57;2.30;;;12.30;97.20;;;;;;5074747;28;20051;-54
2022/04/05 08:58:03;;;;;;;3.90;2.05;;;12.40;96.60;;;;;;5069453;28;20041;-55
2022/04/05 09:00:29;;;;;;;5.63;2.20;;;12.40;96.20;;;;;;5073761;28;20416;-51
2022/04/05 09:02:56;;;;;;;5.32;1.63;;;12.40;96.40;;;;;;5072016;28;20045;-54
2022/04/05 09:05:23;;;;;;;12.63;3.92;;;12.50;95.80;;;;;;5072903;28;20036;-48
2022/04/05 09:07:50;;;;;;;6.22;2.20;;;12.40;95.50;;;;;;5069367;28;20963;-51
2022/04/05 09:10:16;;;;;;;7.47;2.40;;;12.50;95.40;;;;;;5068936;28;20040;-52
2022/04/05 09:12:43;;;;;;;5.72;1.50;;;12.50;94.70;;;;;;5070541;28;20040;-52
2022/04/05 09:15:10;;;;;;;3.65;1.70;;;12.50;94.50;;;;;;5069146;28;20488;-50
2022/04/05 09:17:37;;;;;;;4.82;1.70;;;12.40;94.60;;;;;;5069232;28;20125;-52
2022/04/05 09:20:03;;;;;;;5.30;1.98;;;12.50;94.70;;;;;;5069060;28;20384;-52
2022/04/05 09:22:30;;;;;;;3.67;1.73;;;12.50;94.90;;;;;;5069018;28;20098;-48
2022/04/05 09:24:57;;;;;;;4.45;1.77;;;12.60;94.30;;;;;;5070903;28;20051;-48
2022/04/05 09:27:26;;;;;;;5.25;1.92;;;12.70;94.40;;;;;;5069000;28;20044;-48
2022/04/05 09:29:53;;;;;;;5.47;2.30;;;12.70;94.30;;;;;;5068552;28;20454;-50
2022/04/05 09:32:20;;;;;;;5.35;2.28;;;12.70;94.40;;;;;;5071672;28;20598;-48
2022/04/05 09:34:47;;;;;;;5.30;2.20;;;12.70;94.40;;;;;;5068934;28;20045;-51
2022/04/05 09:37:13;;;;;;;7.68;2.83;;;12.70;94.60;;;;;;5069020;28;20409;-54
2022/04/05 09:39:41;;;;;;;7.72;2.40;;;12.50;94.70;;;;;;5068814;28;20067;-51
2022/04/05 09:42:08;;;;;;;6.32;2.70;;;12.50;95.10;;;;;;5056752;28;20044;-48
2022/04/05 09:44:37;;;;;;;7.07;2.83;;;12.60;95.40;;;;;;5055432;28;20037;-53
2022/04/05 09:47:04;;;;;;;8.75;3.88;;;12.70;95.20;;;;;;5055708;28;20049;-52
2022/04/05 09:49:31;;;;;;;12.77;4.15;;;12.70;95.10;;;;;;5055433;28;20041;-50
2022/04/05 09:51:58;;;;;;;6.40;3.00;;;12.60;94.90;;;;;;5055492;28;20033;-49
2022/04/05 09:54:27;;;;;;;7.65;2.85;;;12.70;94.90;;;;;;5055570;28;20056;-49
2022/04/05 09:56:55;;;;;;;6.97;2.75;;;12.70;94.60;;;;;;5055561;28;20041;-53
2022/04/05 09:59:22;;;;;;;8.13;2.88;;;12.80;94.10;;;;;;5055420;28;20079;-57
2022/04/05 10:01:49;;;;;;;8.60;2.28;;;12.90;94.00;;;;;;5061396;28;20048;-51
2022/04/05 10:04:16;;;;;;;6.57;2.20;;;13.00;93.40;;;;;;5055322;28;20041;-56
2022/04/05 10:06:46;;;;;;;5.47;2.13;;;13.00;92.90;;;;;;5055339;28;20061;-49
2022/04/05 10:09:12;;;;;;;6.07;2.42;;;13.20;93.00;;;;;;5055191;28;20052;-53
2022/04/05 10:11:39;;;;;;;5.65;1.83;;;13.30;92.50;;;;;;5055448;28;20032;-54
2022/04/05 10:14:06;;;;;;;7.72;2.10;;;13.40;91.80;;;;;;5037623;28;20126;-52
2022/04/05 10:16:33;;;;;;;5.78;1.95;;;13.60;92.30;;;;;;5055081;28;20049;-55
2022/04/05 10:19:07;;;;;;;5.85;2.10;;;13.70;92.00;;;;;;5055079;28;20040;-54
2022/04/05 10:21:37;;;;;;;6.25;2.17;;;13.80;90.90;;;;;;5054965;28;20080;-51
2022/04/05 10:24:04;;;;;;;7.15;2.30;;;13.80;91.20;;;;;;5055118;28;20052;-50
2022/04/05 10:26:30;;;;;;;7.40;2.80;;;13.80;90.70;;;;;;5055088;28;20072;-51
2022/04/05 10:28:57;;;;;;;7.30;2.58;;;13.60;90.80;;;;;;5054812;28;20128;-53
2022/04/05 10:31:24;;;;;;;5.28;2.20;;;13.60;91.00;;;;;;5055417;28;20067;-56
2022/04/05 10:33:51;;;;;;;7.30;2.50;;;13.70;91.70;;;;;;5054771;28;20048;-52
2022/04/05 10:36:18;;;;;;;8.27;2.63;;;13.80;91.10;;;;;;5054791;28;20538;-50
2022/04/05 10:38:45;;;;;;;10.15;2.63;;;13.90;90.70;;;;;;5054687;28;20041;-52
2022/04/05 10:41:11;;;;;;;7.60;2.13;;;13.90;90.50;;;;;;5054698;28;20076;-56
2022/04/05 10:43:39;;;;;;;6.63;2.08;;;13.90;90.50;;;;;;5054617;28;20076;-56
2022/04/05 10:46:05;;;;;;;6.25;2.45;;;14.00;90.80;;;;;;5054506;28;20102;-53
2022/04/05 10:48:32;;;;;;;8.38;2.70;;;14.00;90.20;;;;;;5036781;28;20080;-53
2022/04/05 10:50:59;;;;;;;8.60;3.03;;;13.90;90.60;;;;;;5054537;28;21108;-53
2022/04/05 10:53:26;;;;;;;7.88;2.65;;;13.90;90.70;;;;;;5053359;28;20044;-52
2022/04/05 10:55:53;;;;;;;8.85;2.75;;;14.00;91.20;;;;;;5054461;28;20396;-55
2022/04/05 10:58:19;;;;;;;9.65;3.25;;;14.00;90.90;;;;;;5054355;28;20045;-50
2022/04/05 11:00:46;;;;;;;9.93;3.70;;;14.00;90.80;;;;;;5054136;28;20072;-50
2022/04/05 11:03:13;;;;;;;7.70;3.33;;;14.00;91.00;;;;;;5057898;28;20045;-49
2022/04/05 11:05:41;;;;;;;7.70;2.85;;;14.00;90.90;;;;;;5054219;28;20210;-52
2022/04/05 11:08:09;;;;;;;10.45;3.83;;;14.10;91.00;;;;;;5054222;28;20091;-53
2022/04/05 11:10:36;;;;;;;12.20;3.85;;;14.10;91.00;;;;;;5053805;28;20037;-51
2022/04/05 11:13:03;;;;;;;12.82;5.47;;;14.20;90.50;;;;;;5054064;28;20075;-54
2022/04/05 11:15:30;;;;;;;11.45;4.53;;;14.30;90.90;;;;;;5054071;28;20037;-54
2022/04/05 11:17:56;;;;;;;9.07;4.30;;;14.40;90.10;;;;;;5054017;28;20542;-52
2022/04/05 11:20:23;;;;;;;9.55;3.65;;;14.40;90.80;;;;;;5053957;28;20041;-52
2022/04/05 11:22:50;;;;;;;9.48;4.22;;;14.40;90.70;;;;;;5053960;28;20120;-54
2022/04/05 11:25:17;;;;;;;15.18;5.60;;;14.40;90.40;;;;;;5054048;28;20069;-52
2022/04/05 11:27:47;;;;;;;14.63;5.15;;;14.40;90.60;;;;;;5053737;28;20116;-53
2022/04/05 11:30:37;;;;;;;15.35;5.88;;;14.30;90.00;;;;;;5035507;28;20071;-52
2022/04/05 11:33:03;;;;;;;12.20;4.65;;;14.10;90.30;;;;;;5059880;28;20106;-53
2022/04/05 11:35:45;;;;;;;13.98;4.38;;;14.10;90.30;;;;;;5053469;28;20041;-51
2022/04/05 11:38:12;;;;;;;12.43;4.25;;;13.90;90.40;;;;;;5035866;28;20542;-53
2022/04/05 11:40:38;;;;;;;14.40;5.50;;;13.90;90.50;;;;;;5053565;28;20048;-54
2022/04/05 11:43:05;;;;;;;8.40;3.17;;;14.00;90.90;;;;;;5053589;28;20429;-53
2022/04/05 11:45:32;;;;;;;10.02;2.90;;;14.00;90.20;;;;;;5053530;28;20412;-56
2022/04/05 11:47:59;;;;;;;10.10;3.30;;;14.10;89.30;;;;;;5053350;28;20056;-53
2022/04/05 11:50:26;;;;;;;12.25;3.53;;;14.10;89.80;;;;;;5053451;28;20041;-54
2022/04/05 11:52:52;;;;;;;12.57;3.40;;;14.00;89.10;;;;;;5046840;28;20040;-51
2022/04/05 11:58:05;;;;;;;8.88;2.65;;;14.10;88.50;;;;;;5053291;28;20403;-55
2022/04/05 12:00:33;;;;;;;9.15;2.75;;;14.00;88.00;;;;;;5052038;28;20060;-53
2022/04/05 12:03:02;;;;;;;11.90;3.95;;;14.10;88.90;;;;;;5053053;28;20041;-57
2022/04/05 12:05:29;;;;;;;13.52;4.13;;;14.20;89.00;;;;;;5035335;28;20051;-53
2022/04/05 12:07:56;;;;;;;14.20;4.72;;;14.30;87.60;;;;;;5053162;28;20087;-51
2022/04/05 12:10:23;;;;;;;11.32;3.75;;;14.40;88.20;;;;;;5052484;28;20538;-50
2022/04/05 12:12:50;;;;;;;13.27;4.07;;;14.40;87.60;;;;;;5053092;28;20033;-49
2022/04/05 12:15:16;;;;;;;8.80;3.85;;;14.50;86.80;;;;;;5057056;28;20119;-54
2022/04/05 12:17:45;;;;;;;9.95;2.92;;;14.40;87.20;;;;;;5053058;28;20397;-53
2022/04/05 12:20:12;;;;;;;9.45;3.38;;;14.50;87.50;;;;;;5053064;28;20049;-50
2022/04/05 12:22:39;;;;;;;9.77;3.40;;;14.50;87.10;;;;;;5055180;28;20094;-51
2022/04/05 12:25:05;;;;;;;10.02;3.00;;;14.40;87.20;;;;;;5053089;28;20428;-54
2022/04/05 12:27:32;;;;;;;9.60;3.47;;;14.30;87.80;;;;;;5053498;28;20051;-56
2022/04/05 12:30:00;;;;;;;10.20;3.30;;;14.20;88.30;;;;;;5035048;28;20049;-53
2022/04/05 12:32:27;;;;;;;10.02;3.20;;;14.20;87.50;;;;;;5052787;28;20065;-52
2022/04/05 12:34:54;;;;;;;10.50;3.03;;;14.10;86.60;;;;;;5057380;28;20075;-49
2022/04/05 12:37:22;;;;;;;12.68;4.00;;;14.10;86.50;;;;;;5052921;28;20048;-56
2022/04/05 12:39:54;;;;;;;9.98;3.50;;;14.10;86.90;;;;;;5052660;28;20061;-55
2022/04/05 12:42:21;;;;;;;15.43;4.30;;;14.00;87.30;;;;;;5052938;28;20041;-56
2022/04/05 12:44:48;;;;;;;11.73;4.10;;;14.00;87.80;;;;;;5055625;28;20037;-56
2022/04/05 12:47:16;;;;;;;12.20;3.70;;;13.90;87.90;;;;;;5052579;28;20045;-57
2022/04/05 12:49:43;;;;;;;14.93;3.75;;;13.90;89.10;;;;;;5051498;28;20037;-49
2022/04/05 12:52:10;;;;;;;9.32;2.72;;;13.90;88.70;;;;;;5052545;28;20048;-55
2022/04/05 12:54:36;;;;;;;10.82;3.47;;;14.10;89.10;;;;;;5052657;28;20065;-53
2022/04/05 12:57:03;;;;;;;14.55;3.30;;;14.10;88.10;;;;;;5052594;28;20124;-47
2022/04/05 12:59:30;;;;;;;12.32;3.63;;;14.20;87.30;;;;;;5051910;28;20044;-50
2022/04/05 13:01:57;;;;;;;13.63;3.63;;;14.30;87.60;;;;;;5052381;28;20041;-49
2022/04/05 13:04:24;;;;;;;17.65;4.40;;;14.50;87.00;;;;;;5052871;28;20049;-51
2022/04/05 13:06:50;;;;;;;12.23;3.90;;;14.60;87.70;;;;;;5052656;28;20040;-51
2022/04/05 13:09:18;;;;;;;11.48;3.40;;;14.60;85.60;;;;;;5052741;28;20427;-50
2022/04/05 13:11:44;;;;;;;11.18;3.78;;;14.70;85.50;;;;;;5052553;28;20071;-53
2022/04/05 13:14:12;;;;;;;14.55;3.80;;;14.80;85.50;;;;;;5054328;28;20120;-49
2022/04/05 13:16:39;;;;;;;17.05;3.67;;;14.80;85.40;;;;;;5054496;28;20041;-51
2022/04/05 13:19:07;;;;;;;13.70;3.50;;;14.80;85.40;;;;;;5056331;28;20055;-50
2022/04/05 13:21:34;;;;;;;12.23;3.55;;;14.90;85.90;;;;;;5060014;28;20095;-56
2022/04/05 13:24:01;;;;;;;15.95;4.10;;;15.00;83.90;;;;;;5055703;28;20045;-52
2022/04/05 13:26:28;;;;;;;11.82;3.40;;;14.80;84.10;;;;;;5055505;28;20049;-47
2022/04/05 13:28:54;;;;;;;11.85;3.80;;;14.90;84.90;;;;;;5056108;28;20056;-51
2022/04/05 13:31:21;;;;;;;12.57;3.90;;;15.00;84.40;;;;;;5054556;28;20517;-54
2022/04/05 13:33:48;;;;;;;13.27;3.75;;;15.00;84.10;;;;;;5055981;28;20136;-58
2022/04/05 13:36:15;;;;;;;11.73;3.05;;;15.10;83.40;;;;;;5055935;28;20130;-56
2022/04/05 13:38:41;;;;;;;17.38;3.78;;;15.10;82.10;;;;;;5055995;28;20522;-55
2022/04/05 13:41:10;;;;;;;15.23;3.80;;;15.10;82.70;;;;;;5055718;28;20056;-52
2022/04/05 13:43:36;;;;;;;11.70;3.30;;;15.00;82.00;;;;;;5038177;28;20051;-55
2022/04/05 13:46:03;;;;;;;16.52;3.78;;;15.00;83.00;;;;;;5055939;28;20455;-54
2022/04/05 13:48:30;;;;;;;13.02;3.70;;;15.00;82.40;;;;;;5055719;28;20073;-56
2022/04/05 13:50:57;;;;;;;11.95;3.33;;;15.00;82.40;;;;;;5055721;28;20041;-56
2022/04/05 13:53:24;;;;;;;15.10;3.38;;;15.00;82.60;;;;;;5038458;28;20501;-49
2022/04/05 13:55:52;;;;;;;14.98;3.85;;;15.10;83.00;;;;;;5056257;28;20075;-55
2022/04/05 13:58:18;;;;;;;11.98;3.50;;;15.30;82.30;;;;;;5037651;28;20044;-53
2022/04/05 14:00:47;;;;;;;14.15;3.50;;;15.50;81.90;;;;;;5037808;28;20550;-56
2022/04/05 14:03:13;;;;;;;14.52;3.53;;;15.50;81.60;;;;;;5037649;28;20067;-51
2022/04/05 14:05:40;;;;;;;13.65;3.60;;;15.40;81.30;;;;;;5055542;28;20125;-52
2022/04/05 14:08:07;;;;;;;15.43;3.75;;;15.30;81.00;;;;;;5055026;28;20099;-53
2022/04/05 14:10:34;;;;;;;10.60;2.88;;;15.30;80.00;;;;;;5055102;28;20048;-53
2022/04/05 14:13:21;;;;;;;10.55;2.90;;;15.20;78.60;;;;;;5055212;28;20400;-56
2022/04/05 14:15:48;;;;;;;9.40;2.60;;;15.20;79.80;;;;;;5037644;28;20037;-55
2022/04/05 14:18:15;;;;;;;8.93;2.63;;;15.20;78.60;;;;;;5055543;28;20041;-53
2022/04/05 14:20:44;;;;;;;11.95;3.70;;;15.10;77.90;;;;;;5055084;28;20045;-57
2022/04/05 14:23:11;;;;;;;9.75;2.83;;;15.00;78.70;;;;;;5055293;28;20107;-55
2022/04/05 14:25:37;;;;;;;13.23;3.15;;;15.00;79.00;;;;;;5054787;28;20072;-52
2022/04/05 14:28:04;;;;;;;10.75;2.60;;;15.00;80.30;;;;;;5054595;28;20127;-57
2022/04/05 14:30:31;;;;;;;12.77;2.92;;;14.90;80.00;;;;;;5058842;28;20068;-57
2022/04/05 14:32:58;;;;;;;12.40;2.65;;;14.90;81.40;;;;;;5054836;28;20090;-54
2022/04/05 14:35:25;;;;;;;12.90;2.80;;;14.90;80.20;;;;;;5051160;28;20040;-54
2022/04/05 14:37:54;;;;;;;14.63;3.22;;;14.80;80.40;;;;;;5048620;28;20094;-57
2022/04/05 14:40:21;;;;;;;12.35;3.08;;;14.70;81.10;;;;;;5054704;28;20095;-52
2022/04/05 14:42:48;;;;;;;13.73;3.10;;;14.80;81.60;;;;;;5054398;28;20041;-56
2022/04/05 14:45:25;;;;;;;10.48;3.05;;;14.70;80.60;;;;;;5049646;28;20041;-52
2022/04/05 14:47:52;;;;;;;11.82;3.78;;;14.60;81.00;;;;;;5036776;28;20037;-51
2022/04/05 14:50:19;;;;;;;13.70;3.25;;;14.60;81.20;;;;;;5054508;28;20044;-52
2022/04/05 14:53:05;;;;;;;10.35;2.95;;;14.60;80.60;;;;;;5059195;28;20106;-53
2022/04/05 14:55:35;;;;;;;9.98;2.97;;;14.60;80.30;;;;;;5054542;28;20044;-49
2022/04/05 14:58:02;;;;;;;7.95;3.28;;;14.60;80.80;;;;;;5036936;28;20060;-57
2022/04/05 15:00:29;;;;;;;10.45;2.95;;;14.60;80.70;;;;;;5058949;28;20068;-50
2022/04/05 15:02:55;;;;;;;12.02;3.63;;;14.70;81.10;;;;;;5054331;28;20037;-54
2022/04/05 15:05:22;;;;;;;10.60;3.33;;;14.70;81.10;;;;;;5054587;28;20377;-52
2022/04/05 15:07:49;;;;;;;15.98;3.97;;;14.70;81.00;;;;;;5039612;28;20151;-56
2022/04/05 15:10:16;;;;;;;12.35;3.10;;;14.60;81.30;;;;;;5054116;28;20407;-53
2022/04/05 15:12:47;;;;;;;9.18;2.85;;;14.50;80.90;;;;;;5056902;28;20568;-57
2022/04/05 15:15:16;;;;;;;8.73;2.97;;;14.60;81.80;;;;;;5054146;28;20041;-50
2022/04/05 15:17:43;;;;;;;14.23;3.22;;;14.60;81.30;;;;;;5054361;28;20063;-50
2022/04/05 15:20:10;;;;;;;8.52;2.80;;;14.70;81.10;;;;;;5054033;28;20123;-51
2022/04/05 15:22:37;;;;;;;12.57;2.80;;;14.80;79.90;;;;;;5054037;28;20037;-50
2022/04/05 15:25:03;;;;;;;15.18;2.50;;;14.90;80.10;;;;;;5054060;28;20095;-55
2022/04/05 15:27:30;;;;;;;11.63;3.33;;;14.90;80.00;;;;;;5053850;28;20123;-56
2022/04/05 15:29:57;;;;;;;8.77;2.42;;;14.70;78.90;;;;;;5036569;28;20500;-55
2022/04/05 15:32:24;;;;;;;11.02;3.67;;;14.70;79.20;;;;;;5053843;28;20041;-51
2022/04/05 15:34:50;;;;;;;9.57;2.30;;;14.70;78.10;;;;;;5053907;28;20037;-53
2022/04/05 15:37:17;;;;;;;5.22;1.98;;;14.70;78.70;;;;;;5057743;28;20045;-58
2022/04/05 15:39:44;;;;;;;6.95;2.20;;;14.80;78.30;;;;;;5053190;28;20068;-54
2022/04/05 15:42:11;;;;;;;7.82;2.03;;;14.80;76.90;;;;;;5035756;28;20049;-53
2022/04/05 15:44:40;;;;;;;7.45;1.85;;;14.80;77.20;;;;;;5053578;28;20044;-52
2022/04/05 15:47:07;;;;;;;7.93;2.08;;;14.80;75.70;;;;;;5053449;28;20488;-51
2022/04/05 15:49:34;;;;;;;7.43;2.25;;;14.70;75.80;;;;;;5019205;28;20048;-53
2022/04/05 15:52:01;;;;;;;10.93;2.50;;;14.70;76.10;;;;;;5055469;28;20376;-55
2022/04/05 15:54:27;;;;;;;8.60;1.85;;;14.60;75.30;;;;;;5053675;28;20037;-51
2022/04/05 15:56:54;;;;;;;4.75;1.77;;;14.60;75.00;;;;;;5053560;28;20099;-53
2022/04/05 15:59:21;;;;;;;7.70;2.08;;;14.50;75.30;;;;;;5035074;28;20052;-54
2022/04/05 16:01:48;;;;;;;8.13;1.98;;;14.50;76.60;;;;;;5053317;28;20071;-56
2022/04/05 16:04:15;;;;;;;9.13;2.50;;;14.50;76.00;;;;;;5053390;28;20041;-51
2022/04/05 16:06:42;;;;;;;7.03;2.30;;;14.50;77.10;;;;;;5053308;28;20049;-52
2022/04/05 16:09:09;;;;;;;10.07;2.20;;;14.50;76.60;;;;;;5053284;28;20079;-54
2022/04/05 16:11:35;;;;;;;9.80;2.67;;;14.50;77.00;;;;;;5053094;28;20042;-53
2022/04/05 16:14:02;;;;;;;9.38;2.40;;;14.40;77.30;;;;;;5053221;28;20041;-49
2022/04/05 16:16:29;;;;;;;6.43;2.33;;;14.40;76.70;;;;;;5053505;28;20395;-53
2022/04/05 16:18:56;;;;;;;9.95;2.30;;;14.30;77.10;;;;;;5053178;28;20065;-53
2022/04/05 16:21:23;;;;;;;10.73;2.55;;;14.40;77.40;;;;;;5052545;28;20064;-54
2022/04/05 16:23:50;;;;;;;11.57;2.67;;;14.50;77.80;;;;;;5052572;28;20476;-57
2022/04/05 16:26:17;;;;;;;8.05;2.35;;;14.50;78.20;;;;;;5053007;28;20041;-53
2022/04/05 16:28:44;;;;;;;8.65;1.85;;;14.60;77.80;;;;;;5053125;28;20076;-56
2022/04/05 16:31:11;;;;;;;8.48;2.20;;;14.60;78.10;;;;;;5049407;28;20036;-52
2022/04/05 16:33:39;;;;;;;8.73;2.10;;;14.60;78.40;;;;;;5046474;28;20048;-56
2022/04/05 16:36:05;;;;;;;10.70;2.35;;;14.60;77.20;;;;;;5029164;28;20033;-54
2022/04/05 16:38:33;;;;;;;5.50;1.60;;;14.70;77.50;;;;;;5053263;28;20045;-57
2022/04/05 16:41:00;;;;;;;7.03;1.98;;;14.60;76.70;;;;;;5057211;28;20045;-53
2022/04/05 16:43:27;;;;;;;6.40;1.92;;;14.50;77.30;;;;;;5052790;28;20128;-55
2022/04/05 16:45:53;;;;;;;6.00;1.63;;;14.50;77.40;;;;;;5052913;28;20102;-53
2022/04/05 16:48:20;;;;;;;6.85;2.20;;;14.40;77.00;;;;;;5052849;28;20068;-55
2022/04/05 16:50:48;;;;;;;8.45;2.15;;;14.40;76.70;;;;;;5052571;28;20125;-55
2022/04/05 16:53:15;;;;;;;10.45;1.92;;;14.30;77.10;;;;;;5056799;28;20367;-52
2022/04/05 16:55:44;;;;;;;9.27;3.33;;;14.30;78.10;;;;;;5056951;28;20045;-56
2022/04/05 16:58:10;;;;;;;10.07;2.47;;;14.30;78.60;;;;;;5056799;28;20117;-56
2022/04/05 17:00:37;;;;;;;9.35;2.25;;;14.20;79.60;;;;;;5060058;28;20099;-53
2022/04/05 17:03:04;;;;;;;9.23;2.40;;;14.20;80.30;;;;;;5056606;28;20041;-53
2022/04/05 17:05:31;;;;;;;8.02;2.08;;;14.20;80.50;;;;;;5056612;28;20037;-51
2022/04/05 17:07:57;;;;;;;10.18;2.85;;;14.20;80.60;;;;;;5056686;28;20103;-53
2022/04/05 17:10:24;;;;;;;8.20;2.45;;;14.20;81.00;;;;;;5056406;28;20124;-52
2022/04/05 17:12:51;;;;;;;9.63;2.40;;;14.20;81.30;;;;;;5056384;28;20037;-50
2022/04/05 17:15:19;;;;;;;8.38;2.35;;;14.20;81.30;;;;;;5057457;28;20040;-55
2022/04/05 17:17:45;;;;;;;11.45;2.50;;;14.20;81.20;;;;;;5038716;28;20037;-54
2022/04/05 17:20:13;;;;;;;7.07;1.98;;;14.20;81.40;;;;;;5056472;28;20055;-55
2022/04/05 17:22:40;;;;;;;7.70;2.28;;;14.10;81.60;;;;;;5055700;28;20099;-54
2022/04/05 17:25:07;;;;;;;8.07;2.53;;;14.10;82.30;;;;;;5057888;28;20041;-53
2022/04/05 17:27:33;;;;;;;8.63;2.25;;;14.00;82.80;;;;;;5056224;28;20072;-53
2022/04/05 17:30:00;;;;;;;10.35;2.30;;;14.00;83.20;;;;;;5055820;28;20049;-56
2022/04/05 17:32:27;;;;;;;10.00;2.55;;;13.90;83.40;;;;;;5056938;28;20071;-54
2022/04/05 17:34:54;;;;;;;6.57;2.00;;;13.80;83.60;;;;;;5056053;28;20053;-55
2022/04/05 17:37:20;;;;;;;6.72;2.10;;;13.70;83.40;;;;;;5056072;28;20041;-56
2022/04/05 17:39:47;;;;;;;6.75;1.80;;;13.70;83.60;;;;;;5056005;28;20047;-55
2022/04/05 17:42:14;;;;;;;6.88;1.75;;;13.60;83.70;;;;;;5055622;28;20049;-54
2022/04/05 17:44:40;;;;;;;6.90;2.17;;;13.60;84.00;;;;;;5056098;28;20124;-50
2022/04/05 17:47:07;;;;;;;8.00;1.90;;;13.50;83.70;;;;;;5055739;28;20037;-53
2022/04/05 17:49:34;;;;;;;7.00;1.65;;;13.40;83.80;;;;;;5037914;28;20480;-50
2022/04/05 17:52:01;;;;;;;6.60;1.73;;;13.40;84.00;;;;;;5055791;28;20068;-52
2022/04/05 17:54:28;;;;;;;5.05;1.50;;;13.40;84.50;;;;;;5055721;28;20052;-55
2022/04/05 17:56:56;;;;;;;6.80;1.55;;;13.40;84.30;;;;;;5055613;28;20396;-54
2022/04/05 17:59:22;;;;;;;6.75;2.05;;;13.40;84.40;;;;;;5055622;28;20044;-54
2022/04/05 18:01:49;;;;;;;7.97;1.80;;;13.30;84.40;;;;;;5054876;28;20459;-53
2022/04/05 18:04:16;;;;;;;6.93;1.88;;;13.30;84.60;;;;;;5055565;28;20044;-51
2022/04/05 18:06:43;;;;;;;4.15;1.70;;;13.30;84.40;;;;;;5056268;28;20483;-51
2022/04/05 18:09:10;;;;;;;4.72;2.00;;;13.20;84.50;;;;;;5055360;28;20043;-55
2022/04/05 18:11:38;;;;;;;7.25;1.80;;;13.20;84.90;;;;;;5056737;28;20083;-55
2022/04/05 18:14:09;;;;;;;4.57;1.50;;;13.10;84.90;;;;;;5055347;28;20037;-53
2022/04/05 18:16:37;;;;;;;9.23;2.00;;;13.00;84.20;;;;;;5055242;28;20162;-56
2022/04/05 18:19:04;;;;;;;4.43;1.52;;;12.90;84.60;;;;;;5055429;28;20091;-53
2022/04/05 18:21:31;;;;;;;7.82;2.00;;;12.90;84.50;;;;;;5055121;28;20045;-53
2022/04/05 18:23:59;;;;;;;6.80;1.55;;;12.90;85.10;;;;;;5055160;28;20092;-53
2022/04/05 18:26:26;;;;;;;5.90;1.60;;;12.90;84.80;;;;;;5055164;28;20056;-54
2022/04/05 18:28:53;;;;;;;8.85;2.25;;;12.90;84.70;;;;;;5054966;28;20496;-53
2022/04/05 18:31:20;;;;;;;3.53;1.42;;;12.70;84.20;;;;;;5053827;28;20415;-54
2022/04/05 18:33:47;;;;;;;6.63;1.75;;;12.70;84.10;;;;;;5055103;28;20086;-51
2022/04/05 18:36:14;;;;;;;5.00;1.55;;;12.60;84.10;;;;;;5054571;28;20041;-51
2022/04/05 18:38:40;;;;;;;3.95;1.20;;;12.50;84.00;;;;;;5059069;28;20041;-51
2022/04/05 18:41:07;;;;;;;5.15;1.23;;;12.50;84.40;;;;;;5054820;28;20480;-58
2022/04/05 18:43:34;;;;;;;5.40;1.33;;;12.50;84.10;;;;;;5037089;28;20043;-54
2022/04/05 18:46:01;;;;;;;5.15;1.30;;;12.40;83.40;;;;;;5054740;28;20132;-54
2022/04/05 18:48:28;;;;;;;4.82;1.35;;;12.40;83.70;;;;;;5056095;28;20114;-54
2022/04/05 18:50:55;;;;;;;4.78;1.33;;;12.40;83.30;;;;;;5054704;28;20120;-55
2022/04/05 18:53:25;;;;;;;6.30;1.20;;;12.40;83.70;;;;;;5054618;28;20033;-53
2022/04/05 18:55:53;;;;;;;6.43;1.50;;;12.30;83.00;;;;;;5054438;28;20389;-54
2022/04/05 18:58:19;;;;;;;4.60;1.35;;;12.30;83.60;;;;;;5054565;28;20106;-55
2022/04/05 19:00:46;;;;;;;4.25;1.40;;;12.30;83.20;;;;;;5055861;28;20068;-49
2022/04/05 19:03:16;;;;;;;4.20;1.23;;;12.20;83.40;;;;;;5054440;28;20073;-53
2022/04/05 19:05:43;;;;;;;4.38;1.10;;;12.20;83.80;;;;;;5056043;28;20104;-55
2022/04/05 19:08:10;;;;;;;4.00;1.30;;;12.20;83.60;;;;;;5054480;28;20073;-51
2022/04/05 19:10:36;;;;;;;4.80;1.38;;;12.20;83.90;;;;;;5054186;28;20065;-55
2022/04/05 19:13:05;;;;;;;3.28;1.27;;;12.10;83.80;;;;;;5053801;28;20068;-53
2022/04/05 19:15:33;;;;;;;6.22;1.02;;;12.10;83.10;;;;;;5053772;28;20135;-53
2022/04/05 19:18:00;;;;;;;6.00;1.40;;;12.10;83.50;;;;;;5054164;28;20041;-55
2022/04/05 19:20:27;;;;;;;8.32;1.20;;;12.10;83.50;;;;;;5055181;28;20052;-54
2022/04/05 19:22:54;;;;;;;3.22;1.05;;;12.00;83.20;;;;;;5036018;28;20044;-55
2022/04/05 19:25:21;;;;;;;5.43;1.20;;;12.00;83.00;;;;;;5053861;28;20036;-50
2022/04/05 19:27:49;;;;;;;3.88;1.25;;;11.90;82.50;;;;;;5053827;28;20492;-49
2022/04/05 19:30:16;;;;;;;4.70;1.20;;;11.90;82.60;;;;;;5053680;28;20076;-52
2022/04/05 19:32:43;;;;;;;5.82;1.10;;;11.80;82.80;;;;;;5052948;28;20076;-49
2022/04/05 19:35:10;;;;;;;6.65;1.50;;;11.80;82.80;;;;;;5050817;28;20033;-54
2022/04/05 19:37:36;;;;;;;7.07;1.48;;;11.70;82.90;;;;;;5049616;28;20041;-55
2022/04/05 19:40:03;;;;;;;6.07;1.50;;;11.70;82.80;;;;;;5053647;28;20071;-52
2022/04/05 19:42:30;;;;;;;4.43;1.20;;;11.70;83.30;;;;;;5055453;28;20522;-53
2022/04/05 19:45:00;;;;;;;6.03;1.67;;;11.70;83.50;;;;;;5053563;28;20492;-52
2022/04/05 19:47:27;;;;;;;5.57;1.50;;;11.70;83.10;;;;;;5053482;28;20476;-53
2022/04/05 19:49:54;;;;;;;7.47;1.60;;;11.70;83.40;;;;;;5053504;28;20094;-50
2022/04/05 19:52:21;;;;;;;6.25;1.40;;;11.60;83.30;;;;;;5053504;28;20041;-49
2022/04/05 19:54:48;;;;;;;5.35;1.58;;;11.50;83.70;;;;;;5053456;28;20041;-53
2022/04/05 19:57:14;;;;;;;7.47;1.60;;;11.50;84.00;;;;;;5052843;28;20040;-52
2022/04/05 19:59:41;;;;;;;4.97;1.48;;;11.40;83.90;;;;;;5053268;28;20439;-49
2022/04/05 20:02:11;;;;;;;6.55;1.60;;;11.40;84.10;;;;;;5052529;28;20045;-50
2022/04/05 20:04:39;;;;;;;8.10;1.33;;;11.40;84.30;;;;;;5053156;28;20049;-54
2022/04/05 20:07:06;;;;;;;5.78;1.40;;;11.50;84.10;;;;;;5052831;28;20128;-56
2022/04/05 20:09:33;;;;;;;5.72;1.60;;;11.40;83.90;;;;;;5052892;28;20595;-54
2022/04/05 20:12:00;;;;;;;4.50;1.42;;;11.40;84.20;;;;;;5056005;28;20037;-52
2022/04/05 20:14:27;;;;;;;7.00;1.58;;;11.40;83.80;;;;;;5052638;28;20065;-51
2022/04/05 20:19:40;;;;;;;4.00;1.17;;;11.40;84.00;;;;;;5052801;28;20382;-52
2022/04/05 20:22:06;;;;;;;5.65;1.40;;;11.40;84.20;;;;;;5052940;28;20087;-54
2022/04/05 20:24:33;;;;;;;5.75;1.40;;;11.30;84.30;;;;;;5052845;28;20127;-54
2022/04/05 20:27:00;;;;;;;7.63;1.85;;;11.30;84.30;;;;;;5058080;28;20041;-55
2022/04/05 20:29:27;;;;;;;7.82;1.52;;;11.30;84.70;;;;;;5052973;28;20052;-56
2022/04/05 20:31:54;;;;;;;5.82;1.65;;;11.30;84.80;;;;;;5052105;28;20049;-54
2022/04/05 20:34:22;;;;;;;7.63;1.73;;;11.30;84.90;;;;;;5036534;28;20503;-53
2022/04/05 20:36:50;;;;;;;5.55;1.50;;;11.30;85.00;;;;;;5052984;28;20087;-57
2022/04/05 20:39:17;;;;;;;4.28;1.45;;;11.30;85.20;;;;;;5052259;28;20113;-53
2022/04/05 20:41:44;;;;;;;6.22;1.42;;;11.30;85.20;;;;;;5035073;28;20037;-53
2022/04/05 20:44:10;;;;;;;4.80;1.42;;;11.30;85.20;;;;;;5051783;28;20455;-52
2022/04/05 20:46:37;;;;;;;5.97;1.40;;;11.30;85.40;;;;;;5057138;28;20037;-55
2022/04/05 20:49:09;;;;;;;3.75;1.23;;;11.20;85.40;;;;;;5035679;28;20037;-54
2022/04/05 20:51:36;;;;;;;5.97;1.50;;;11.20;85.50;;;;;;5051267;28;20064;-56
2022/04/05 20:54:03;;;;;;;5.72;1.70;;;11.20;85.50;;;;;;5029738;28;20091;-57
2022/04/05 20:56:30;;;;;;;7.90;1.70;;;11.10;85.60;;;;;;5051976;28;20056;-56
2022/04/05 20:58:57;;;;;;;7.55;1.70;;;11.00;85.50;;;;;;5057073;28;20124;-52
2022/04/05 21:01:24;;;;;;;6.30;1.60;;;11.00;85.40;;;;;;5034821;28;20451;-55
